createdAt,value
2018-04-18T00:00:45.782Z,12.35
2018-04-18T00:03:18.324Z,12.39
2018-04-18T00:05:50.900Z,12.39
2018-04-18T00:08:23.414Z,12.35
2018-04-18T00:10:55.968Z,12.31
2018-04-18T00:13:28.487Z,12.30
2018-04-18T00:16:01.860Z,12.27
2018-04-18T00:18:34.443Z,12.25
2018-04-18T00:21:07.045Z,12.16
2018-04-18T00:23:39.569Z,12.15
2018-04-18T00:26:12.064Z,12.16
2018-04-18T00:28:44.571Z,12.16
2018-04-18T00:31:17.064Z,12.17
2018-04-18T00:33:49.575Z,12.15
2018-04-18T00:36:22.142Z,12.11
2018-04-18T00:38:54.736Z,12.09
2018-04-18T00:41:27.224Z,12.04
2018-04-18T00:43:59.758Z,11.99
2018-04-18T00:46:32.242Z,11.98
2018-04-18T00:49:04.775Z,11.98
2018-04-18T00:51:37.352Z,11.95
2018-04-18T00:54:09.942Z,11.95
2018-04-18T00:56:42.443Z,11.92
2018-04-18T00:59:14.951Z,11.88
2018-04-18T01:01:47.457Z,11.86
2018-04-18T01:04:20.076Z,11.85
2018-04-18T01:06:52.572Z,11.84
2018-04-18T01:09:25.087Z,11.80
2018-04-18T01:11:57.579Z,11.78
2018-04-18T01:14:30.608Z,11.75
2018-04-18T01:17:03.115Z,11.74
2018-04-18T01:19:35.700Z,11.74
2018-04-18T01:22:08.191Z,11.74
2018-04-18T01:24:40.767Z,11.69
2018-04-18T01:27:13.352Z,11.66
2018-04-18T01:29:45.939Z,11.65
2018-04-18T01:32:18.457Z,11.63
2018-04-18T01:34:51.019Z,11.61
2018-04-18T01:37:23.510Z,11.61
2018-04-18T01:39:56.022Z,11.60
2018-04-18T01:42:28.513Z,11.59
2018-04-18T01:45:02.012Z,11.58
2018-04-18T01:47:34.552Z,11.56
2018-04-18T01:50:07.063Z,11.51
2018-04-18T01:52:39.567Z,11.44
2018-04-18T01:55:12.082Z,11.37
2018-04-18T01:57:44.571Z,11.34
2018-04-18T02:00:17.074Z,11.32
2018-04-18T02:02:49.667Z,11.36
2018-04-18T02:05:22.179Z,11.36
2018-04-18T02:07:54.670Z,11.30
2018-04-18T02:10:27.183Z,11.25
2018-04-18T02:12:59.726Z,11.25
2018-04-18T02:15:32.289Z,11.21
2018-04-18T02:18:04.775Z,11.15
2018-04-18T02:20:37.350Z,11.09
2018-04-18T02:23:09.840Z,11.04
2018-04-18T02:25:42.426Z,10.93
2018-04-18T02:28:14.928Z,10.86
2018-04-18T02:30:47.451Z,10.92
2018-04-18T02:33:19.965Z,10.83
2018-04-18T02:35:52.476Z,10.85
2018-04-18T02:38:24.963Z,10.64
2018-04-18T02:40:57.470Z,10.57
2018-04-18T02:43:30.711Z,10.47
2018-04-18T02:46:03.226Z,10.16
2018-04-18T02:48:35.715Z,10.11
2018-04-18T02:51:08.234Z,9.98
2018-04-18T02:53:40.734Z,9.92
2018-04-18T02:56:13.252Z,10.29
2018-04-18T02:58:45.831Z,10.43
2018-04-18T03:01:18.484Z,10.50
2018-04-18T03:03:50.981Z,10.62
2018-04-18T03:06:23.596Z,10.70
2018-04-18T03:08:56.098Z,10.70
2018-04-18T03:11:28.608Z,10.74
2018-04-18T03:14:02.081Z,10.78
2018-04-18T03:16:34.599Z,10.80
2018-04-18T03:19:07.446Z,10.84
2018-04-18T03:21:39.963Z,10.86
2018-04-18T03:24:12.491Z,10.87
2018-04-18T03:26:45.828Z,10.91
2018-04-18T03:29:18.343Z,10.87
2018-04-18T03:31:50.878Z,10.84
2018-04-18T03:34:23.400Z,10.83
2018-04-18T03:36:55.893Z,10.79
2018-04-18T03:39:28.436Z,10.75
2018-04-18T03:42:00.925Z,10.73
2018-04-18T03:44:33.434Z,10.73
2018-04-18T03:47:06.002Z,10.68
2018-04-18T03:49:38.571Z,10.70
2018-04-18T03:52:11.159Z,10.70
2018-04-18T03:54:43.672Z,10.65
2018-04-18T03:57:16.163Z,10.62
2018-04-18T03:59:48.720Z,10.62
2018-04-18T04:02:21.221Z,10.60
2018-04-18T04:04:53.733Z,10.58
2018-04-18T04:07:26.224Z,10.59
2018-04-18T04:09:58.779Z,10.57
2018-04-18T04:12:31.838Z,10.56
2018-04-18T04:15:04.357Z,10.53
2018-04-18T04:17:48.911Z,10.51
2018-04-18T04:20:33.356Z,10.53
2018-04-18T04:23:17.872Z,10.52
2018-04-18T04:25:50.383Z,10.53
2018-04-18T04:28:22.876Z,10.52
2018-04-18T04:30:55.398Z,10.51
2018-04-18T04:33:27.884Z,10.50
2018-04-18T04:36:01.160Z,10.54
2018-04-18T04:38:33.658Z,10.61
2018-04-18T04:41:06.259Z,10.66
2018-04-18T04:43:38.743Z,10.71
2018-04-18T04:46:11.256Z,10.80
2018-04-18T04:48:43.759Z,10.84
2018-04-18T04:51:16.264Z,10.91
2018-04-18T04:53:48.750Z,10.96
2018-04-18T04:56:21.262Z,11.02
2018-04-18T04:58:53.772Z,11.15
2018-04-18T05:01:26.327Z,11.31
2018-04-18T05:03:58.831Z,11.51
2018-04-18T05:06:31.352Z,11.70
2018-04-18T05:09:03.849Z,11.91
2018-04-18T05:11:36.466Z,12.30
2018-04-18T05:14:08.955Z,12.66
2018-04-18T05:16:41.533Z,12.99
2018-04-18T05:19:14.024Z,13.63
2018-04-18T05:21:46.608Z,14.73
2018-04-18T05:24:19.115Z,16.21
2018-04-18T05:26:51.683Z,17.11
2018-04-18T05:29:24.183Z,17.48
2018-04-18T05:31:56.701Z,18.10
2018-04-18T05:34:29.187Z,18.81
2018-04-18T05:37:02.559Z,19.69
2018-04-18T05:39:35.052Z,20.75
2018-04-18T05:42:07.561Z,21.75
2018-04-18T05:44:40.098Z,22.44
2018-04-18T05:47:12.698Z,23.36
2018-04-18T05:49:45.257Z,24.52
2018-04-18T05:52:17.780Z,24.97
2018-04-18T05:54:50.310Z,24.89
2018-04-18T05:57:22.833Z,24.37
2018-04-18T05:59:55.332Z,23.35
2018-04-18T06:02:27.869Z,22.58
2018-04-18T06:05:01.457Z,21.93
2018-04-18T06:07:33.976Z,20.80
2018-04-18T06:10:06.467Z,19.87
2018-04-18T06:12:38.971Z,19.66
2018-04-18T06:15:11.461Z,19.81
2018-04-18T06:17:44.032Z,20.21
2018-04-18T06:20:16.522Z,20.63
2018-04-18T06:22:49.088Z,21.12
2018-04-18T06:25:21.681Z,21.61
2018-04-18T06:27:54.189Z,22.42
2018-04-18T06:30:26.678Z,23.16
2018-04-18T06:32:59.229Z,23.06
2018-04-18T06:35:31.867Z,22.63
2018-04-18T06:38:04.408Z,21.87
2018-04-18T06:40:36.912Z,21.38
2018-04-18T06:43:09.423Z,21.17
2018-04-18T06:45:41.956Z,20.72
2018-04-18T06:48:14.475Z,20.55
2018-04-18T06:50:46.982Z,20.45
2018-04-18T06:53:19.507Z,19.89
2018-04-18T06:55:52.023Z,19.96
2018-04-18T06:58:24.548Z,19.92
2018-04-18T07:00:57.058Z,20.10
2018-04-18T07:03:29.839Z,20.07
2018-04-18T07:06:02.363Z,20.03
2018-04-18T07:08:34.863Z,20.25
2018-04-18T07:11:07.383Z,19.87
2018-04-18T07:13:39.890Z,20.16
2018-04-18T07:16:12.428Z,20.42
2018-04-18T07:18:44.922Z,20.53
2018-04-18T07:21:17.451Z,20.76
2018-04-18T07:23:49.957Z,20.69
2018-04-18T07:26:22.491Z,20.63
2018-04-18T07:28:54.991Z,20.91
2018-04-18T07:31:27.503Z,21.12
2018-04-18T07:34:00.500Z,21.41
2018-04-18T07:36:33.027Z,21.30
2018-04-18T07:39:06.314Z,21.68
2018-04-18T07:41:38.936Z,21.70
2018-04-18T07:44:11.515Z,22.07
2018-04-18T07:46:44.034Z,22.26
2018-04-18T07:49:16.534Z,22.57
2018-04-18T07:51:49.053Z,22.79
2018-04-18T07:54:21.556Z,22.89
2018-04-18T07:56:54.075Z,23.15
2018-04-18T07:59:26.575Z,23.30
2018-04-18T08:01:59.160Z,23.50
2018-04-18T08:04:32.488Z,23.76
2018-04-18T08:07:05.102Z,24.25
2018-04-18T08:09:37.602Z,24.87
2018-04-18T08:12:10.175Z,24.88
2018-04-18T08:14:42.685Z,24.68
2018-04-18T08:17:15.203Z,24.59
2018-04-18T08:19:47.712Z,24.71
2018-04-18T08:22:20.235Z,24.72
2018-04-18T08:24:52.735Z,24.79
2018-04-18T08:27:25.259Z,24.76
2018-04-18T08:29:57.759Z,24.75
2018-04-18T08:32:30.663Z,24.77
2018-04-18T08:35:03.158Z,24.75
2018-04-18T08:37:35.676Z,24.79
2018-04-18T08:40:08.170Z,25.03
2018-04-18T08:42:40.695Z,24.97
2018-04-18T08:45:13.208Z,24.77
2018-04-18T08:47:45.733Z,24.92
2018-04-18T08:50:18.354Z,24.98
2018-04-18T08:52:50.892Z,24.93
2018-04-18T08:55:23.384Z,24.93
2018-04-18T08:57:55.902Z,25.10
2018-04-18T09:00:28.407Z,25.11
2018-04-18T09:03:00.923Z,24.77
2018-04-18T09:05:33.424Z,24.92
2018-04-18T09:08:05.953Z,24.94
2018-04-18T09:10:38.459Z,25.02
2018-04-18T09:13:11.018Z,25.18
2018-04-18T09:15:43.571Z,25.33
2018-04-18T09:18:16.075Z,25.31
2018-04-18T09:20:48.584Z,25.40
2018-04-18T09:23:21.149Z,25.37
2018-04-18T09:25:53.735Z,25.24
2018-04-18T09:28:26.261Z,25.31
2018-04-18T09:30:58.752Z,25.45
2018-04-18T09:33:31.964Z,25.51
2018-04-18T09:36:04.489Z,25.50
2018-04-18T09:38:37.067Z,25.30
2018-04-18T09:41:09.664Z,25.27
2018-04-18T09:43:42.183Z,25.42
2018-04-18T09:46:14.734Z,25.32
2018-04-18T09:48:47.414Z,25.70
2018-04-18T09:51:19.916Z,25.64
2018-04-18T09:53:52.427Z,25.56
2018-04-18T09:56:24.982Z,25.51
2018-04-18T09:58:57.562Z,25.52
2018-04-18T10:01:35.712Z,25.72
2018-04-18T10:04:09.977Z,25.52
2018-04-18T10:06:42.483Z,24.80
2018-04-18T10:09:15.008Z,24.95
2018-04-18T10:11:47.518Z,25.35
2018-04-18T10:14:20.032Z,25.69
2018-04-18T10:16:52.527Z,25.68
2018-04-18T10:19:25.058Z,25.66
2018-04-18T10:21:57.610Z,25.81
2018-04-18T10:24:30.931Z,25.91
2018-04-18T10:27:03.453Z,25.86
2018-04-18T10:29:36.025Z,25.84
2018-04-18T10:32:08.532Z,25.73
2018-04-18T10:34:41.030Z,25.95
2018-04-18T10:37:13.581Z,25.77
2018-04-18T10:39:46.112Z,26.04
2018-04-18T10:42:18.623Z,26.38
2018-04-18T10:44:51.136Z,26.31
2018-04-18T10:47:23.652Z,26.12
2018-04-18T10:49:56.252Z,26.26
2018-04-18T10:52:28.775Z,26.17
2018-04-18T10:55:01.276Z,26.12
2018-04-18T10:57:33.809Z,26.21
2018-04-18T11:00:06.405Z,26.40
2018-04-18T11:02:38.921Z,26.39
2018-04-18T11:05:11.483Z,26.28
2018-04-18T11:07:44.000Z,26.41
2018-04-18T11:10:16.495Z,26.58
2018-04-18T11:12:49.000Z,26.66
2018-04-18T11:15:21.511Z,26.60
2018-04-18T11:17:54.079Z,26.57
2018-04-18T11:20:26.673Z,26.81
2018-04-18T11:22:59.199Z,26.99
2018-04-18T11:25:31.937Z,27.10
2018-04-18T11:28:04.464Z,26.83
2018-04-18T11:30:36.969Z,26.89
2018-04-18T11:33:09.538Z,26.90
2018-04-18T11:35:42.055Z,26.70
2018-04-18T11:38:14.685Z,26.80
2018-04-18T11:40:47.311Z,26.83
2018-04-18T11:43:19.871Z,27.03
2018-04-18T11:45:52.404Z,27.26
2018-04-18T11:48:24.930Z,27.33
2018-04-18T11:50:57.443Z,27.63
2018-04-18T11:53:30.549Z,27.97
2018-04-18T11:56:03.035Z,27.63
2018-04-18T11:58:35.558Z,27.63
2018-04-18T12:01:08.059Z,27.98
2018-04-18T12:03:40.578Z,27.84
2018-04-18T12:06:13.131Z,28.03
2018-04-18T12:08:45.650Z,28.04
2018-04-18T12:11:18.195Z,27.80
2018-04-18T12:13:50.707Z,27.69
2018-04-18T12:16:23.194Z,27.81
2018-04-18T12:18:55.709Z,28.12
2018-04-18T12:21:28.203Z,28.57
2018-04-18T12:24:00.715Z,29.20
2018-04-18T12:26:33.291Z,29.33
2018-04-18T12:29:05.888Z,29.06
2018-04-18T12:31:38.471Z,28.49
2018-04-18T12:34:11.060Z,28.49
2018-04-18T12:36:43.636Z,29.25
2018-04-18T12:39:16.157Z,31.40
2018-04-18T12:41:48.772Z,32.13
2018-04-18T12:44:21.293Z,33.75
2018-04-18T12:46:53.871Z,35.12
2018-04-18T12:49:26.456Z,34.71
2018-04-18T12:51:59.040Z,34.53
2018-04-18T12:54:32.211Z,33.43
2018-04-18T12:57:04.732Z,32.44
2018-04-18T12:59:37.265Z,32.44
2018-04-18T13:02:09.799Z,32.19
2018-04-18T13:04:42.324Z,33.42
2018-04-18T13:07:14.811Z,32.24
2018-04-18T13:09:47.323Z,31.83
2018-04-18T13:12:19.818Z,32.42
2018-04-18T13:14:52.359Z,32.87
2018-04-18T13:17:24.859Z,31.65
2018-04-18T13:19:57.371Z,31.63
2018-04-18T13:22:29.859Z,32.05
2018-04-18T13:25:02.374Z,34.11
2018-04-18T13:27:34.873Z,35.36
2018-04-18T13:30:07.387Z,34.75
2018-04-18T13:32:39.901Z,32.99
2018-04-18T13:35:12.420Z,33.30
2018-04-18T13:37:44.914Z,33.00
2018-04-18T13:40:17.454Z,35.64
2018-04-18T13:42:50.140Z,36.61
2018-04-18T13:45:22.672Z,35.59
2018-04-18T13:47:55.168Z,33.04
2018-04-18T13:50:27.706Z,32.66
2018-04-18T13:53:00.877Z,32.49
2018-04-18T13:55:33.398Z,31.67
2018-04-18T13:58:05.890Z,31.81
2018-04-18T14:00:38.447Z,32.04
2018-04-18T14:03:10.971Z,30.41
2018-04-18T14:05:43.468Z,30.75
2018-04-18T14:08:15.986Z,30.91
2018-04-18T14:10:48.477Z,31.04
2018-04-18T14:13:20.992Z,31.08
2018-04-18T14:15:53.551Z,30.07
2018-04-18T14:18:26.067Z,29.48
2018-04-18T14:20:58.562Z,29.21
2018-04-18T14:23:31.935Z,29.17
2018-04-18T14:26:04.432Z,29.47
2018-04-18T14:28:36.997Z,29.65
2018-04-18T14:31:09.588Z,29.36
2018-04-18T14:33:42.107Z,28.86
2018-04-18T14:36:14.658Z,28.60
2018-04-18T14:38:47.166Z,28.28
2018-04-18T14:41:19.664Z,28.52
2018-04-18T14:43:52.183Z,28.64
2018-04-18T14:46:24.674Z,28.68
2018-04-18T14:48:57.180Z,28.49
2018-04-18T14:51:30.268Z,28.48
2018-04-18T14:54:02.778Z,28.40
2018-04-18T14:56:35.269Z,28.31
2018-04-18T14:59:07.778Z,28.27
2018-04-18T15:01:40.273Z,28.45
2018-04-18T15:04:12.783Z,28.68
2018-04-18T15:06:45.270Z,28.73
2018-04-18T15:09:17.850Z,28.48
2018-04-18T15:11:51.074Z,28.39
2018-04-18T15:14:23.660Z,28.21
2018-04-18T15:16:56.292Z,28.18
2018-04-18T15:19:29.161Z,28.07
2018-04-18T15:22:02.758Z,28.09
2018-04-18T15:24:35.267Z,28.03
2018-04-18T15:27:07.764Z,28.04
2018-04-18T15:29:40.319Z,28.09
2018-04-18T15:32:12.807Z,28.06
2018-04-18T15:34:45.399Z,27.94
2018-04-18T15:37:17.914Z,27.90
2018-04-18T15:39:50.431Z,27.73
2018-04-18T15:42:23.039Z,27.56
2018-04-18T15:44:55.548Z,27.22
2018-04-18T15:47:28.445Z,27.33
2018-04-18T15:50:00.976Z,27.16
2018-04-18T15:52:33.497Z,27.38
2018-04-18T15:55:06.020Z,27.48
2018-04-18T15:57:38.514Z,27.61
2018-04-18T16:00:11.046Z,27.60
2018-04-18T16:02:43.653Z,27.65
2018-04-18T16:05:16.356Z,27.64
2018-04-18T16:07:48.921Z,27.67
2018-04-18T16:10:21.441Z,27.72
2018-04-18T16:12:54.327Z,27.35
2018-04-18T16:15:27.004Z,27.44
2018-04-18T16:17:59.736Z,27.34
2018-04-18T16:20:32.592Z,27.34
2018-04-18T16:23:05.075Z,27.66
2018-04-18T16:25:37.633Z,28.05
2018-04-18T16:28:10.103Z,27.56
2018-04-18T16:30:42.684Z,27.60
2018-04-18T16:33:15.184Z,27.36
2018-04-18T16:35:47.704Z,27.34
2018-04-18T16:38:20.199Z,27.19
2018-04-18T16:40:52.720Z,27.28
2018-04-18T16:43:25.238Z,27.48
2018-04-18T16:45:57.747Z,27.47
2018-04-18T16:48:30.949Z,27.40
2018-04-18T16:51:03.473Z,27.56
2018-04-18T16:53:35.966Z,27.79
2018-04-18T16:56:08.472Z,28.04
2018-04-18T16:58:40.967Z,28.37
2018-04-18T17:01:13.670Z,28.77
2018-04-18T17:03:46.200Z,28.74
2018-04-18T17:06:18.822Z,28.59
2018-04-18T17:08:51.324Z,28.31
2018-04-18T17:11:23.892Z,28.11
2018-04-18T17:13:56.391Z,28.00
2018-04-18T17:16:29.024Z,28.04
2018-04-18T17:19:02.386Z,28.13
2018-04-18T17:21:34.934Z,28.01
2018-04-18T17:24:07.639Z,27.89
2018-04-18T17:26:40.161Z,27.39
2018-04-18T17:29:12.732Z,26.93
2018-04-18T17:31:45.316Z,26.58
2018-04-18T17:34:18.055Z,26.26
2018-04-18T17:36:50.557Z,25.96
2018-04-18T17:39:23.081Z,25.48
2018-04-18T17:41:55.647Z,25.26
2018-04-18T17:44:28.352Z,24.97
2018-04-18T17:47:00.861Z,24.66
2018-04-18T17:49:33.535Z,24.45
2018-04-18T17:52:06.083Z,24.34
2018-04-18T17:54:38.599Z,24.24
2018-04-18T17:57:11.087Z,24.04
2018-04-18T17:59:43.632Z,23.86
2018-04-18T18:02:16.131Z,23.63
2018-04-18T18:04:48.646Z,23.44
2018-04-18T18:07:21.136Z,23.26
2018-04-18T18:09:53.672Z,23.07
2018-04-18T18:12:26.302Z,22.90
2018-04-18T18:14:58.824Z,22.81
2018-04-18T18:17:32.419Z,22.71
2018-04-18T18:20:04.936Z,22.59
2018-04-18T18:22:37.439Z,22.49
2018-04-18T18:25:10.129Z,22.37
2018-04-18T18:27:42.626Z,22.25
2018-04-18T18:30:15.139Z,22.21
2018-04-18T18:32:47.634Z,22.07
2018-04-18T18:35:20.161Z,21.77
2018-04-18T18:37:52.652Z,21.65
2018-04-18T18:40:25.234Z,21.60
2018-04-18T18:42:57.806Z,21.51
2018-04-18T18:45:31.172Z,21.37
2018-04-18T18:48:03.660Z,21.18
2018-04-18T18:50:36.167Z,21.08
2018-04-18T18:53:08.955Z,21.04
2018-04-18T18:55:41.554Z,20.99
2018-04-18T18:58:14.042Z,20.92
2018-04-18T19:00:46.550Z,20.81
2018-04-18T19:03:19.045Z,20.63
2018-04-18T19:05:51.554Z,20.50
2018-04-18T19:08:24.076Z,20.43
2018-04-18T19:10:56.601Z,20.31
2018-04-18T19:13:29.086Z,19.98
2018-04-18T19:16:02.563Z,19.83
2018-04-18T19:18:35.306Z,19.63
2018-04-18T19:21:07.820Z,19.57
2018-04-18T19:23:40.587Z,19.51
2018-04-18T19:26:13.484Z,19.47
2018-04-18T19:28:45.990Z,19.41
2018-04-18T19:31:18.567Z,19.35
2018-04-18T19:33:51.086Z,19.27
2018-04-18T19:36:23.626Z,19.20
2018-04-18T19:38:56.138Z,19.08
2018-04-18T19:41:29.030Z,18.98
2018-04-18T19:44:02.272Z,19.26
2018-04-18T19:46:34.788Z,19.25
2018-04-18T19:49:07.404Z,19.21
2018-04-18T19:51:40.095Z,19.12
2018-04-18T19:54:12.590Z,19.07
2018-04-18T19:56:45.391Z,19.01
2018-04-18T19:59:17.907Z,18.96
2018-04-18T20:01:50.527Z,18.89
2018-04-18T20:04:23.116Z,18.86
2018-04-18T20:06:55.917Z,18.76
2018-04-18T20:09:28.411Z,18.73
2018-04-18T20:12:01.879Z,18.65
2018-04-18T20:14:34.373Z,18.58
2018-04-18T20:17:06.973Z,18.52
2018-04-18T20:19:39.560Z,18.41
2018-04-18T20:22:12.146Z,18.34
2018-04-18T20:24:44.726Z,18.32
2018-04-18T20:27:17.236Z,18.29
2018-04-18T20:29:49.795Z,18.22
2018-04-18T20:32:22.388Z,18.19
2018-04-18T20:34:54.878Z,18.13
2018-04-18T20:37:27.463Z,18.06
2018-04-18T20:40:00.923Z,18.07
2018-04-18T20:42:33.443Z,18.02
2018-04-18T20:45:05.938Z,17.96
2018-04-18T20:47:38.481Z,17.90
2018-04-18T20:50:10.975Z,17.82
2018-04-18T20:52:43.597Z,17.74
2018-04-18T20:55:16.181Z,17.73
2018-04-18T20:57:48.711Z,17.73
2018-04-18T21:00:21.204Z,17.63
2018-04-18T21:02:53.723Z,17.43
2018-04-18T21:05:26.220Z,17.36
2018-04-18T21:07:58.737Z,17.35
2018-04-18T21:10:32.099Z,17.34
2018-04-18T21:13:04.679Z,17.29
2018-04-18T21:15:37.263Z,17.15
2018-04-18T21:18:09.784Z,16.56
2018-04-18T21:20:42.372Z,16.64
2018-04-18T21:23:14.927Z,16.77
2018-04-18T21:25:47.423Z,16.84
2018-04-18T21:28:19.935Z,16.80
2018-04-18T21:30:52.428Z,16.84
2018-04-18T21:33:24.940Z,16.82
2018-04-18T21:35:57.448Z,16.81
2018-04-18T21:38:30.673Z,16.77
2018-04-18T21:41:03.180Z,16.76
2018-04-18T21:43:35.722Z,16.74
2018-04-18T21:46:08.211Z,16.69
2018-04-18T21:48:40.787Z,16.63
2018-04-18T21:51:13.277Z,16.57
2018-04-18T21:53:45.787Z,16.54
2018-04-18T21:56:18.346Z,16.48
2018-04-18T21:58:50.857Z,16.44
2018-04-18T22:01:23.399Z,16.43
2018-04-18T22:03:55.991Z,16.38
2018-04-18T22:06:28.485Z,16.37
2018-04-18T22:09:01.780Z,16.31
2018-04-18T22:11:34.276Z,16.28
2018-04-18T22:14:06.844Z,16.26
2018-04-18T22:16:39.394Z,16.21
2018-04-18T22:19:11.887Z,16.21
2018-04-18T22:21:44.372Z,16.18
2018-04-18T22:24:16.879Z,16.12
2018-04-18T22:26:49.366Z,16.10
2018-04-18T22:29:21.879Z,16.05
2018-04-18T22:31:54.367Z,16.07
2018-04-18T22:34:26.885Z,16.04
2018-04-18T22:37:01.135Z,15.98
2018-04-18T22:39:35.835Z,15.96
2018-04-18T22:42:08.374Z,15.96
2018-04-18T22:44:40.948Z,15.91
2018-04-18T22:47:13.501Z,15.85
2018-04-18T22:49:46.041Z,15.81
2018-04-18T22:52:18.605Z,15.77
2018-04-18T22:54:51.134Z,15.73
2018-04-18T22:57:23.639Z,15.72
2018-04-18T22:59:56.268Z,15.70
2018-04-18T23:02:28.844Z,15.65
2018-04-18T23:05:02.142Z,15.64
2018-04-18T23:07:34.635Z,15.62
2018-04-18T23:10:07.227Z,15.57
2018-04-18T23:12:39.723Z,15.50
2018-04-18T23:15:12.244Z,15.54
2018-04-18T23:17:44.773Z,15.54
2018-04-18T23:20:17.321Z,15.49
2018-04-18T23:22:49.806Z,15.44
2018-04-18T23:25:22.419Z,15.38
2018-04-18T23:27:54.906Z,15.32
2018-04-18T23:30:27.427Z,15.27
2018-04-18T23:33:00.199Z,15.24
2018-04-18T23:35:32.718Z,15.20
2018-04-18T23:38:05.223Z,15.14
2018-04-18T23:40:37.731Z,15.12
2018-04-18T23:43:10.225Z,15.12
2018-04-18T23:45:42.752Z,15.06
2018-04-18T23:48:15.241Z,14.98
2018-04-18T23:50:47.757Z,14.92
2018-04-18T23:53:20.256Z,14.92
2018-04-18T23:55:52.780Z,14.90
2018-04-18T23:58:25.280Z,14.91
